Time;durP1;ratioP1;P1;durP2;ratioP2;P2;SDS_P1;SDS_P2;PMS_P1;PMS_P2;Temp;Humidity;BMP_temperature;BMP_pressure;BME280_temperature;BME280_humidity;BME280_pressure;Samples;Min_cycle;Max_cycle;Signal;HPM_P1;HPM_P2
2022/01/11 00:01:27;;;;;;;36.70;20.23;;;;;;;5.84;65.98;97753.63;5057220;28;20920;-73
2022/01/11 00:03:53;;;;;;;35.83;21.47;;;;;;;5.78;66.52;97759.28;5066139;28;20460;-72
2022/01/11 00:08:45;;;;;;;41.87;21.80;;;;;;;5.88;66.08;97759.44;5071169;28;20436;-72
2022/01/11 00:11:11;;;;;;;41.47;21.80;;;;;;;5.86;66.11;97756.94;5062905;28;20194;-75
2022/01/11 00:13:38;;;;;;;40.53;21.17;;;;;;;5.85;66.08;97755.28;5071075;28;20502;-73
2022/01/11 00:16:05;;;;;;;38.80;19.90;;;;;;;5.74;66.47;97747.41;5068126;28;20214;-72
2022/01/11 00:18:31;;;;;;;39.00;20.10;;;;;;;5.74;66.73;97748.22;5071484;28;20433;-72
2022/01/11 00:20:56;;;;;;;34.37;20.23;;;;;;;5.86;66.18;97748.34;5070994;28;20928;-72
2022/01/11 00:25:48;;;;;;;37.80;21.20;;;;;;;5.86;65.78;97745.72;5071153;28;20207;-72
2022/01/11 00:28:15;;;;;;;37.60;19.47;;;;;;;5.37;67.56;97751.66;5071166;28;20186;-71
2022/01/11 00:30:42;;;;;;;37.13;20.10;;;;;;;5.62;66.77;97755.16;5061788;28;20612;-72
2022/01/11 00:33:14;;;;;;;42.90;20.30;;;;;;;5.43;66.85;97752.16;5074959;28;20547;-73
2022/01/11 00:35:44;;;;;;;38.37;19.80;;;;;;;5.19;68.15;97752.91;5067326;28;20466;-72
2022/01/11 00:38:15;;;;;;;34.97;19.93;;;;;;;4.96;68.61;97751.91;5073325;28;20428;-72
2022/01/11 00:40:45;;;;;;;35.40;18.70;;;;;;;5.15;68.78;97754.06;5067866;28;20800;-72
2022/01/11 00:43:11;;;;;;;38.53;19.90;;;;;;;5.18;68.27;97751.25;5073610;28;20464;-73
2022/01/11 00:45:36;;;;;;;38.50;20.60;;;;;;;4.79;69.92;97756.44;5081149;28;20831;-72
2022/01/11 00:48:02;;;;;;;40.30;19.90;;;;;;;4.87;69.96;97761.13;5064185;28;20187;-71
2022/01/11 00:50:28;;;;;;;40.67;20.10;;;;;;;4.89;69.15;97759.28;5062751;28;20560;-72
2022/01/11 00:52:53;;;;;;;42.93;21.40;;;;;;;4.89;68.96;97754.06;5075218;28;20211;-73
2022/01/11 00:55:19;;;;;;;41.37;20.40;;;;;;;5.11;68.86;97760.41;5077439;28;20185;-74
2022/01/11 00:57:45;;;;;;;38.40;19.57;;;;;;;4.95;68.57;97758.84;5078951;28;20186;-74
2022/01/11 01:00:11;;;;;;;33.73;19.00;;;;;;;5.17;68.75;97755.63;5060588;28;20560;-72
2022/01/11 01:02:38;;;;;;;37.93;19.70;;;;;;;5.22;68.06;97761.34;5072955;28;20182;-72
2022/01/11 01:05:04;;;;;;;36.00;21.10;;;;;;;5.07;68.54;97759.78;5078984;28;20491;-72
2022/01/11 01:07:30;;;;;;;40.77;19.50;;;;;;;5.24;67.79;97763.84;5072346;28;20429;-73
2022/01/11 01:10:10;;;;;;;38.80;19.20;;;;;;;5.43;67.41;97770.34;5072146;28;20426;-73
2022/01/11 01:12:36;;;;;;;30.10;18.20;;;;;;;5.51;66.93;97768.06;5062917;28;20182;-71
2022/01/11 01:15:02;;;;;;;36.50;20.33;;;;;;;5.60;67.10;97767.44;5066123;28;20452;-71
2022/01/11 01:17:28;;;;;;;36.30;19.50;;;;;;;5.61;67.13;97774.28;5071810;28;20806;-74
2022/01/11 01:19:53;;;;;;;28.20;17.80;;;;;;;5.66;67.08;97772.22;5057550;28;20433;-73
2022/01/11 01:22:19;;;;;;;31.03;17.23;;;;;;;5.75;66.71;97768.09;5072299;28;20221;-71
2022/01/11 01:24:46;;;;;;;40.80;18.53;;;;;;;5.82;66.84;97760.69;5068610;28;20225;-74
2022/01/11 01:27:12;;;;;;;36.70;19.13;;;;;;;5.74;66.52;97768.22;5074426;28;20224;-72
2022/01/11 01:29:40;;;;;;;34.23;19.93;;;;;;;5.81;66.44;97774.66;5069720;28;20430;-72
2022/01/11 01:32:07;;;;;;;30.40;18.70;;;;;;;5.82;66.41;97774.56;5072746;28;20193;-73
2022/01/11 01:34:33;;;;;;;33.97;18.63;;;;;;;5.79;66.19;97771.34;5074633;28;20919;-71
2022/01/11 01:36:59;;;;;;;34.57;19.23;;;;;;;5.85;66.58;97776.09;5074573;28;20468;-73
2022/01/11 01:39:25;;;;;;;39.10;20.03;;;;;;;5.82;66.24;97781.50;5074481;28;20535;-72
2022/01/11 01:41:52;;;;;;;35.43;19.83;;;;;;;5.88;66.55;97790.66;5073054;28;20424;-71
2022/01/11 01:44:18;;;;;;;40.60;19.63;;;;;;;5.82;66.40;97781.50;5073889;28;20468;-71
2022/01/11 01:46:43;;;;;;;32.63;19.20;;;;;;;5.71;66.75;97778.84;5071591;28;20896;-72
2022/01/11 01:49:15;;;;;;;35.83;19.13;;;;;;;5.82;66.81;97786.72;5074253;28;20433;-72
2022/01/11 01:51:41;;;;;;;41.77;20.73;;;;;;;5.76;66.57;97797.56;5074506;28;20178;-72
2022/01/11 01:54:07;;;;;;;35.60;19.77;;;;;;;5.83;66.37;97797.03;5072825;28;20444;-72
2022/01/11 01:56:33;;;;;;;44.50;21.57;;;;;;;5.87;66.24;97797.66;5074492;28;20683;-73
2022/01/11 01:58:59;;;;;;;45.97;21.93;;;;;;;5.65;66.43;97790.50;5072967;28;20661;-73
2022/01/11 02:01:26;;;;;;;33.43;19.43;;;;;;;5.71;67.05;97800.50;5063834;28;20436;-75
2022/01/11 02:03:52;;;;;;;42.60;21.30;;;;;;;5.63;67.18;97797.56;5068328;28;20210;-72
2022/01/11 02:06:19;;;;;;;33.93;21.60;;;;;;;5.75;66.61;97798.50;5073384;28;20942;-73
2022/01/11 02:08:46;;;;;;;42.27;21.27;;;;;;;5.76;66.72;97803.59;5055911;28;20567;-71
2022/01/11 02:11:22;;;;;;;35.57;22.50;;;;;;;5.75;67.09;97795.91;5072833;28;20433;-74
2022/01/11 02:13:48;;;;;;;39.50;23.17;;;;;;;5.76;66.66;97802.78;5073338;28;20512;-72
2022/01/11 02:16:14;;;;;;;41.60;21.90;;;;;;;5.82;66.67;97795.38;5070527;28;20913;-72
2022/01/11 02:18:41;;;;;;;41.40;22.40;;;;;;;5.77;66.61;97796.63;5073346;28;20437;-74
2022/01/11 02:21:06;;;;;;;37.13;22.57;;;;;;;5.73;66.78;97800.38;5073301;28;20467;-73
2022/01/11 02:23:32;;;;;;;45.37;24.00;;;;;;;5.76;66.86;97802.78;5069698;28;20456;-74
2022/01/11 02:25:59;;;;;;;41.63;23.23;;;;;;;5.52;67.62;97801.75;5061464;28;20210;-72
2022/01/11 02:28:27;;;;;;;42.80;24.53;;;;;;;5.72;67.53;97794.34;5065490;28;20216;-72
2022/01/11 02:30:53;;;;;;;49.23;24.50;;;;;;;5.83;66.82;97793.59;5073426;28;20425;-73
2022/01/11 02:33:49;;;;;;;38.10;22.60;;;;;;;5.88;67.10;97796.72;5074098;28;20448;-72
2022/01/11 02:36:18;;;;;;;37.80;22.53;;;;;;;5.83;66.74;97804.84;4992917;28;20440;-72
2022/01/11 02:38:48;;;;;;;41.17;22.53;;;;;;;5.47;67.18;97809.06;5002423;28;20517;-71
2022/01/11 02:41:14;;;;;;;41.90;22.00;;;;;;;5.12;68.70;97801.06;4993987;28;20440;-72
2022/01/11 02:43:41;;;;;;;39.67;22.47;;;;;;;5.20;68.91;97797.00;4992933;28;20460;-72
2022/01/11 02:46:07;;;;;;;42.30;22.23;;;;;;;5.08;68.80;97798.66;4993786;28;20221;-74
2022/01/11 02:48:32;;;;;;;47.57;25.00;;;;;;;4.86;70.13;97794.06;4978426;28;20435;-72
2022/01/11 02:50:58;;;;;;;51.70;26.40;;;;;;;4.99;69.38;97796.69;4992334;28;20189;-72
2022/01/11 02:53:24;;;;;;;47.50;23.37;;;;;;;4.82;70.26;97795.22;4992459;28;20220;-73
2022/01/11 02:55:49;;;;;;;53.60;25.70;;;;;;;5.17;69.61;97801.56;4990725;28;20195;-72
2022/01/11 02:58:15;;;;;;;47.00;23.70;;;;;;;5.22;68.66;97795.13;4990711;28;20566;-73
2022/01/11 03:00:41;;;;;;;52.47;25.90;;;;;;;5.32;69.03;97800.53;4989847;28;20227;-71
2022/01/11 03:03:09;;;;;;;50.53;26.37;;;;;;;5.41;68.44;97795.66;4996290;28;20209;-73
2022/01/11 03:05:35;;;;;;;47.27;22.63;;;;;;;5.44;68.12;97801.47;4974216;28;20754;-73
2022/01/11 03:08:00;;;;;;;46.27;25.40;;;;;;;5.35;68.72;97795.13;4990238;28;20441;-73
2022/01/11 03:10:32;;;;;;;44.83;23.80;;;;;;;5.04;69.26;97796.38;4994241;28;20271;-73
2022/01/11 03:13:04;;;;;;;48.93;25.77;;;;;;;4.96;69.77;97799.47;5034249;28;20218;-72
2022/01/11 03:15:29;;;;;;;52.93;25.20;;;;;;;5.13;69.56;97797.53;5072123;28;20867;-73
2022/01/11 03:17:55;;;;;;;59.57;27.87;;;;;;;5.31;68.78;97798.03;5069284;28;20440;-73
2022/01/11 03:20:21;;;;;;;51.53;25.50;;;;;;;5.42;68.88;97805.13;5071534;28;20603;-71
2022/01/11 03:22:46;;;;;;;50.97;25.30;;;;;;;5.37;68.63;97795.00;5068608;28;20630;-73
2022/01/11 03:25:13;;;;;;;51.80;26.10;;;;;;;5.49;68.34;97798.53;5063438;28;20541;-73
2022/01/11 03:27:40;;;;;;;52.80;25.67;;;;;;;5.16;69.16;97790.34;5051133;28;20646;-72
2022/01/11 03:30:06;;;;;;;51.40;25.60;;;;;;;5.42;68.92;97797.31;5069444;28;20847;-73
2022/01/11 03:32:32;;;;;;;55.17;24.80;;;;;;;5.53;68.30;97800.00;5071585;28;20516;-72
2022/01/11 03:34:58;;;;;;;49.87;24.10;;;;;;;5.62;67.94;97804.56;5071574;28;20946;-73
2022/01/11 03:37:24;;;;;;;49.30;25.57;;;;;;;5.64;68.03;97802.69;5071678;28;20603;-73
2022/01/11 03:39:49;;;;;;;48.73;25.87;;;;;;;5.65;67.98;97803.50;5064055;28;20194;-71
2022/01/11 03:42:15;;;;;;;52.93;23.40;;;;;;;5.70;67.84;97809.22;5070600;28;20197;-73
2022/01/11 03:44:40;;;;;;;50.60;23.30;;;;;;;5.63;67.92;97801.03;5071945;28;20203;-71
2022/01/11 03:47:06;;;;;;;48.63;24.70;;;;;;;5.65;67.47;97812.16;5074006;28;20210;-71
2022/01/11 03:49:32;;;;;;;53.23;24.70;;;;;;;5.46;68.02;97810.00;5075995;28;20182;-71
2022/01/11 03:51:57;;;;;;;58.53;26.93;;;;;;;5.08;69.06;97813.44;5071245;28;20429;-71
2022/01/11 03:54:26;;;;;;;52.23;24.67;;;;;;;5.06;69.36;97810.09;5071279;28;20283;-71
2022/01/11 03:56:53;;;;;;;56.57;25.80;;;;;;;5.28;68.50;97809.47;5071382;28;20634;-72
2022/01/11 03:59:19;;;;;;;56.90;24.77;;;;;;;5.25;68.15;97814.03;5071078;28;20436;-72
2022/01/11 04:01:46;;;;;;;58.83;25.43;;;;;;;5.13;69.27;97815.72;5066545;28;20421;-72
2022/01/11 04:04:11;;;;;;;48.70;26.17;;;;;;;5.26;68.98;97819.16;5061446;28;20456;-73
2022/01/11 04:06:38;;;;;;;51.60;24.20;;;;;;;5.33;68.38;97811.78;5069192;28;20612;-71
2022/01/11 04:09:05;;;;;;;46.43;25.40;;;;;;;5.31;68.32;97813.63;5070735;28;20610;-71
2022/01/11 04:11:31;;;;;;;53.40;26.10;;;;;;;5.29;68.44;97815.50;5071066;28;20922;-72
2022/01/11 04:13:57;;;;;;;53.30;25.17;;;;;;;5.12;68.71;97822.66;5062981;28;20881;-71
2022/01/11 04:16:22;;;;;;;57.00;25.80;;;;;;;5.14;69.42;97818.19;5067006;28;20409;-73
2022/01/11 04:18:48;;;;;;;64.67;25.53;;;;;;;4.84;69.81;97827.13;5063996;28;20194;-74
2022/01/11 04:21:13;;;;;;;67.53;28.87;;;;;;;4.88;69.85;97819.94;5069800;28;20183;-72
2022/01/11 04:23:39;;;;;;;76.90;29.77;;;;;;;4.98;69.43;97818.41;5067632;28;20833;-73
2022/01/11 04:26:05;;;;;;;62.17;25.37;;;;;;;5.07;69.10;97822.97;5061834;28;20237;-73
2022/01/11 04:28:31;;;;;;;57.53;24.87;;;;;;;5.13;69.05;97821.72;5070492;28;20183;-71
2022/01/11 04:30:59;;;;;;;45.23;24.20;;;;;;;5.08;69.52;97824.63;5071038;28;20980;-75
2022/01/11 04:33:26;;;;;;;55.27;25.37;;;;;;;5.29;68.87;97818.09;5069721;28;20580;-74
2022/01/11 04:35:52;;;;;;;48.33;24.57;;;;;;;5.30;68.45;97822.38;5069949;28;20523;-73
2022/01/11 04:38:19;;;;;;;45.40;25.47;;;;;;;5.15;68.21;97822.47;5056341;28;20899;-72
2022/01/11 04:40:45;;;;;;;48.77;22.77;;;;;;;5.32;68.32;97830.91;5049841;28;20187;-72
2022/01/11 04:43:10;;;;;;;43.37;23.53;;;;;;;5.19;68.73;97823.09;5050953;28;20773;-72
2022/01/11 04:45:36;;;;;;;55.37;24.60;;;;;;;5.05;68.65;97830.03;5051104;28;20199;-72
2022/01/11 04:48:01;;;;;;;47.10;25.17;;;;;;;4.84;69.17;97826.25;5051660;28;20240;-72
2022/01/11 04:50:28;;;;;;;41.87;23.50;;;;;;;4.79;69.47;97838.75;5052713;28;20183;-73
2022/01/11 04:52:53;;;;;;;45.03;22.10;;;;;;;4.82;69.42;97841.13;5054688;28;20562;-73
2022/01/11 04:55:19;;;;;;;49.63;23.67;;;;;;;4.69;69.81;97839.31;5052743;28;20508;-73
2022/01/11 04:57:45;;;;;;;43.60;22.00;;;;;;;4.52;70.30;97847.38;5060582;28;20187;-72
2022/01/11 05:00:12;;;;;;;49.33;23.57;;;;;;;4.56;70.79;97854.03;5054362;28;20183;-72
2022/01/11 05:02:38;;;;;;;53.73;24.23;;;;;;;4.86;69.65;97847.78;5048146;28;20662;-72
2022/01/11 05:05:04;;;;;;;48.67;23.93;;;;;;;5.06;69.39;97847.28;5064283;28;20471;-72
2022/01/11 05:07:30;;;;;;;52.33;24.23;;;;;;;4.98;69.09;97838.34;5050841;28;20184;-71
2022/01/11 05:09:56;;;;;;;53.83;24.47;;;;;;;4.59;69.99;97851.22;5052618;28;20441;-72
2022/01/11 05:12:22;;;;;;;58.53;24.17;;;;;;;4.85;69.56;97840.91;5043852;28;20228;-72
2022/01/11 05:14:48;;;;;;;49.63;23.10;;;;;;;4.95;69.09;97848.94;5055086;28;20520;-72
2022/01/11 05:17:13;;;;;;;54.50;23.63;;;;;;;5.02;69.30;97845.84;5076149;28;20236;-73
2022/01/11 05:19:39;;;;;;;53.20;24.27;;;;;;;4.78;69.06;97843.09;5079302;28;20441;-72
2022/01/11 05:22:04;;;;;;;52.63;24.40;;;;;;;4.71;70.16;97847.03;5073133;28;20193;-70
2022/01/11 05:24:30;;;;;;;55.27;24.50;;;;;;;4.71;70.32;97852.22;5078903;28;20279;-72
2022/01/11 05:26:56;;;;;;;50.30;24.33;;;;;;;4.69;70.42;97848.88;5070424;28;20246;-73
2022/01/11 05:29:21;;;;;;;60.03;24.57;;;;;;;4.67;69.80;97856.75;5058771;28;20528;-73
2022/01/11 05:31:47;;;;;;;57.23;24.30;;;;;;;4.69;69.87;97860.09;5059545;28;20217;-71
2022/01/11 05:34:12;;;;;;;47.07;22.87;;;;;;;4.95;69.81;97861.94;5054134;28;20217;-73
2022/01/11 05:36:39;;;;;;;60.30;25.23;;;;;;;4.86;70.12;97868.56;5054217;28;20187;-73
2022/01/11 05:39:05;;;;;;;69.27;25.93;;;;;;;4.74;69.78;97868.44;5055459;28;20197;-72
2022/01/11 05:41:31;;;;;;;55.57;24.13;;;;;;;4.96;69.90;97864.41;5053846;28;20422;-72
2022/01/11 05:43:57;;;;;;;52.93;25.03;;;;;;;5.07;68.94;97868.91;5035760;28;20476;-73
2022/01/11 05:46:23;;;;;;;45.13;22.03;;;;;;;5.22;68.73;97870.50;5053604;28;20453;-73
2022/01/11 05:48:48;;;;;;;53.17;26.97;;;;;;;4.68;70.67;97876.59;5053714;28;20565;-71
2022/01/11 05:51:17;;;;;;;48.43;25.97;;;;;;;4.89;70.06;97878.75;5053396;28;20175;-73
2022/01/11 05:53:43;;;;;;;47.23;26.07;;;;;;;4.98;70.69;97879.94;5053640;28;20210;-71
2022/01/11 05:56:09;;;;;;;57.80;27.33;;;;;;;5.04;70.13;97882.94;5053404;28;20432;-73
2022/01/11 05:58:35;;;;;;;54.10;26.50;;;;;;;4.84;70.54;97886.84;5052447;28;20445;-72
2022/01/11 06:01:01;;;;;;;54.47;24.90;;;;;;;4.76;70.69;97889.09;5052916;28;20266;-72
2022/01/11 06:03:27;;;;;;;53.30;28.50;;;;;;;4.92;70.25;97896.72;5047155;28;20472;-73
2022/01/11 06:05:52;;;;;;;60.43;27.47;;;;;;;4.90;70.02;97896.00;5053718;28;20198;-73
2022/01/11 06:08:18;;;;;;;61.73;28.57;;;;;;;5.14;69.77;97900.53;5055812;28;20503;-73
2022/01/11 06:10:44;;;;;;;49.13;27.70;;;;;;;5.30;69.20;97903.75;5051790;28;20206;-71
2022/01/11 06:13:11;;;;;;;54.00;26.90;;;;;;;5.32;69.26;97908.88;5053755;28;20202;-75
2022/01/11 06:15:36;;;;;;;56.93;27.80;;;;;;;5.15;69.49;97902.19;5054426;28;20425;-75
2022/01/11 06:18:03;;;;;;;48.27;26.20;;;;;;;5.15;69.59;97912.59;5057915;28;20417;-71
2022/01/11 06:20:28;;;;;;;48.20;27.17;;;;;;;5.34;69.28;97913.03;5058741;28;20187;-73
2022/01/11 06:22:54;;;;;;;58.23;28.27;;;;;;;5.20;69.02;97916.56;5059202;28;20449;-72
2022/01/11 06:25:20;;;;;;;51.83;28.40;;;;;;;4.86;70.00;97917.91;5053333;28;20673;-71
2022/01/11 06:27:46;;;;;;;54.83;26.90;;;;;;;4.39;71.62;97913.06;5061848;28;20193;-74
2022/01/11 06:30:12;;;;;;;51.03;26.17;;;;;;;4.30;72.45;97913.59;5059176;28;20789;-73
2022/01/11 06:32:38;;;;;;;55.00;27.17;;;;;;;4.50;72.30;97921.94;5052175;28;20506;-74
2022/01/11 06:35:05;;;;;;;52.90;28.87;;;;;;;4.65;71.39;97910.59;5052924;28;20753;-73
2022/01/11 06:37:30;;;;;;;63.93;27.20;;;;;;;5.05;70.63;97920.97;5053367;28;20426;-72
2022/01/11 06:39:56;;;;;;;50.57;27.40;;;;;;;5.24;69.61;97922.38;5050839;28;21013;-72
2022/01/11 06:42:22;;;;;;;51.77;28.70;;;;;;;5.33;69.06;97926.16;5054009;28;20175;-73
2022/01/11 06:44:47;;;;;;;62.10;28.80;;;;;;;5.30;68.99;97924.56;5052699;28;20207;-73
2022/01/11 06:47:13;;;;;;;51.30;28.07;;;;;;;5.29;69.01;97922.94;5053916;28;20202;-71
2022/01/11 06:49:39;;;;;;;53.60;27.83;;;;;;;5.40;69.04;97916.16;5052748;28;20174;-73
2022/01/11 06:52:05;;;;;;;49.60;26.90;;;;;;;5.31;69.08;97928.81;5053311;28;20292;-72
2022/01/11 06:54:31;;;;;;;60.73;26.90;;;;;;;5.03;69.62;97930.66;5059686;28;20433;-73
2022/01/11 06:56:57;;;;;;;54.83;28.63;;;;;;;5.15;69.68;97928.19;5052234;28;20795;-72
2022/01/11 06:59:22;;;;;;;66.10;29.80;;;;;;;5.30;68.88;97934.97;5060719;28;20670;-72
2022/01/11 07:01:49;;;;;;;55.33;26.77;;;;;;;4.23;72.08;97936.50;5061877;28;20444;-72
2022/01/11 07:04:14;;;;;;;57.03;27.73;;;;;;;4.01;74.10;97942.19;5071601;28;20445;-71
2022/01/11 07:06:41;;;;;;;57.30;28.40;;;;;;;4.51;72.51;97944.38;5073760;28;20763;-70
2022/01/11 07:09:07;;;;;;;55.07;28.00;;;;;;;4.46;72.74;97948.06;5072497;28;20389;-73
2022/01/11 07:11:33;;;;;;;59.03;27.83;;;;;;;4.82;71.55;97956.25;5072999;28;20456;-73
2022/01/11 07:14:02;;;;;;;59.70;29.20;;;;;;;5.13;70.88;97953.44;5072253;28;20531;-72
2022/01/11 07:16:27;;;;;;;56.70;29.60;;;;;;;5.27;69.86;97953.38;5065872;28;20186;-73
2022/01/11 07:18:53;;;;;;;50.97;29.03;;;;;;;5.15;70.06;97954.19;5059103;28;20788;-73
2022/01/11 07:21:18;;;;;;;49.30;26.43;;;;;;;5.32;70.12;97960.88;5072964;28;20224;-71
2022/01/11 07:23:44;;;;;;;52.17;27.70;;;;;;;5.42;69.13;97955.91;5055249;28;20281;-73
2022/01/11 07:26:09;;;;;;;55.33;26.67;;;;;;;5.48;69.08;97963.28;5052709;28;20207;-72
2022/01/11 07:28:35;;;;;;;50.50;26.77;;;;;;;5.37;69.37;97962.22;5057703;28;20224;-72
2022/01/11 07:31:01;;;;;;;51.07;28.07;;;;;;;5.32;69.27;97966.88;5037381;28;20171;-70
2022/01/11 07:33:27;;;;;;;45.00;26.07;;;;;;;5.49;69.19;97970.16;5073555;28;20436;-72
2022/01/11 07:35:52;;;;;;;58.93;27.87;;;;;;;5.51;68.63;97971.72;5070648;28;20800;-73
2022/01/11 07:38:18;;;;;;;52.23;25.40;;;;;;;5.48;68.50;97976.28;5069312;28;20179;-72
2022/01/11 07:40:44;;;;;;;46.43;25.67;;;;;;;5.49;68.62;97977.97;5059869;28;20179;-71
2022/01/11 07:43:09;;;;;;;48.50;27.47;;;;;;;5.44;68.67;97980.88;5069211;28;20526;-71
2022/01/11 07:45:35;;;;;;;56.80;28.53;;;;;;;5.32;68.98;97976.47;5067082;28;20207;-72
2022/01/11 07:48:00;;;;;;;49.53;25.90;;;;;;;5.50;68.81;97979.63;5060439;28;20201;-70
2022/01/11 07:50:26;;;;;;;48.67;25.73;;;;;;;5.54;68.27;97981.09;5072463;28;20667;-74
2022/01/11 07:52:52;;;;;;;44.93;25.53;;;;;;;5.57;68.19;97985.25;5054433;28;20178;-71
2022/01/11 07:55:19;;;;;;;50.43;27.00;;;;;;;5.72;68.49;97988.59;5054132;28;20975;-73
2022/01/11 07:57:45;;;;;;;49.63;28.20;;;;;;;5.73;67.63;97985.06;5047298;28;20274;-70
2022/01/11 08:00:11;;;;;;;42.67;25.27;;;;;;;5.73;68.22;97990.25;5060627;28;20471;-70
2022/01/11 08:02:37;;;;;;;41.43;24.90;;;;;;;5.72;67.45;97993.78;5062701;28;20178;-71
2022/01/11 08:05:04;;;;;;;52.77;26.50;;;;;;;5.74;67.89;97997.94;5056331;28;20456;-71
2022/01/11 08:07:30;;;;;;;51.87;26.13;;;;;;;5.71;67.28;97992.13;5050123;28;20645;-73
2022/01/11 08:09:56;;;;;;;47.67;25.10;;;;;;;5.72;67.33;97989.44;5069519;28;20431;-71
2022/01/11 08:12:21;;;;;;;46.23;25.13;;;;;;;5.85;67.36;97989.44;5054894;28;20261;-72
2022/01/11 08:14:48;;;;;;;42.00;25.03;;;;;;;5.84;66.97;98005.97;5071549;28;20205;-73
2022/01/11 08:17:15;;;;;;;43.10;25.37;;;;;;;5.75;66.98;98007.44;5071258;28;20206;-72
2022/01/11 08:19:40;;;;;;;51.57;28.80;;;;;;;5.80;67.38;98012.31;5070666;28;20425;-69
2022/01/11 08:22:06;;;;;;;58.80;32.50;;;;;;;5.77;67.62;98002.13;5067455;28;20440;-71
2022/01/11 08:24:32;;;;;;;52.50;26.60;;;;;;;5.88;67.29;98001.41;5069703;28;20203;-69
2022/01/11 08:26:57;;;;;;;76.63;40.80;;;;;;;5.93;66.80;98007.13;5071048;28;20277;-73
2022/01/11 08:29:23;;;;;;;48.13;26.10;;;;;;;6.01;66.93;98009.25;5062021;28;20189;-72
2022/01/11 08:31:50;;;;;;;43.93;25.77;;;;;;;5.98;66.55;98010.28;5054120;28;20179;-71
2022/01/11 08:34:16;;;;;;;45.33;25.80;;;;;;;5.85;67.28;98012.84;5053454;28;20210;-74
2022/01/11 08:36:43;;;;;;;43.27;24.73;;;;;;;5.89;66.86;98011.72;5077318;28;20413;-70
2022/01/11 08:39:10;;;;;;;51.03;27.87;;;;;;;5.36;68.93;98017.75;5070034;28;20424;-70
2022/01/11 08:41:36;;;;;;;49.77;26.43;;;;;;;5.66;68.06;98021.03;5071081;28;20424;-72
2022/01/11 08:44:01;;;;;;;59.53;34.27;;;;;;;5.74;67.90;98028.34;5070608;28;21006;-70
2022/01/11 08:46:27;;;;;;;43.40;24.87;;;;;;;5.74;67.62;98025.75;5061963;28;20259;-72
2022/01/11 08:48:52;;;;;;;44.23;26.67;;;;;;;5.43;68.57;98023.41;5063248;28;20529;-72
2022/01/11 08:51:18;;;;;;;44.33;26.70;;;;;;;4.92;70.84;98027.47;5062057;28;20186;-73
2022/01/11 08:53:44;;;;;;;45.33;26.10;;;;;;;5.19;69.59;98023.19;5074486;28;20266;-69
2022/01/11 08:56:11;;;;;;;52.27;30.00;;;;;;;5.51;69.05;98028.09;5074819;28;20187;-71
2022/01/11 08:58:37;;;;;;;52.30;25.80;;;;;;;5.84;68.25;98029.41;5067067;28;20420;-72
2022/01/11 09:01:02;;;;;;;44.33;26.67;;;;;;;5.74;68.09;98025.75;5065498;28;20418;-71
2022/01/11 09:03:28;;;;;;;59.27;33.23;;;;;;;5.75;67.49;98037.81;5063944;28;20282;-71
2022/01/11 09:05:53;;;;;;;56.93;29.03;;;;;;;5.79;68.02;98034.09;5071323;28;20566;-72
2022/01/11 09:08:21;;;;;;;44.10;25.43;;;;;;;5.42;68.61;98039.09;5074926;28;20253;-71
2022/01/11 09:10:47;;;;;;;45.90;25.57;;;;;;;5.67;68.38;98038.31;5074485;28;20346;-71
2022/01/11 09:13:13;;;;;;;37.70;23.07;;;;;;;5.96;67.80;98041.59;5073661;28;20456;-71
2022/01/11 09:15:38;;;;;;;48.47;24.33;;;;;;;5.90;67.21;98044.63;5073449;28;20183;-71
2022/01/11 09:18:04;;;;;;;42.83;24.90;;;;;;;6.13;66.51;98044.88;5074155;28;20439;-73
2022/01/11 09:20:30;;;;;;;39.90;24.23;;;;;;;5.12;68.91;98058.31;5073691;28;20174;-72
2022/01/11 09:22:56;;;;;;;43.00;24.47;;;;;;;5.78;67.89;98058.44;5071241;28;20247;-72
2022/01/11 09:25:22;;;;;;;43.20;26.40;;;;;;;4.78;70.31;98055.25;5074225;28;20448;-71
2022/01/11 09:27:47;;;;;;;42.20;24.93;;;;;;;5.03;70.82;98055.38;5067494;28;20211;-73
2022/01/11 09:30:14;;;;;;;48.03;25.93;;;;;;;5.76;69.06;98048.13;5072662;28;20465;-72
2022/01/11 09:32:41;;;;;;;46.90;25.53;;;;;;;5.60;68.84;98053.50;5066182;28;20232;-72
2022/01/11 09:35:08;;;;;;;55.80;27.37;;;;;;;6.07;67.82;98045.25;5074591;28;20436;-72
2022/01/11 09:37:34;;;;;;;43.10;25.73;;;;;;;4.71;70.82;98050.41;5056288;28;20467;-72
2022/01/11 09:40:00;;;;;;;40.70;23.50;;;;;;;5.55;68.97;98052.94;5072185;28;20424;-71
2022/01/11 09:42:26;;;;;;;46.97;25.40;;;;;;;5.33;69.31;98056.94;5074786;28;20467;-71
2022/01/11 09:44:52;;;;;;;38.33;23.87;;;;;;;5.92;67.39;98053.13;5064905;28;20211;-72
2022/01/11 09:47:17;;;;;;;48.70;24.60;;;;;;;6.05;66.52;98058.41;5070182;28;20428;-70
2022/01/11 09:49:43;;;;;;;49.27;23.90;;;;;;;5.53;68.30;98049.66;5067834;28;20671;-72
2022/01/11 09:52:10;;;;;;;42.03;23.47;;;;;;;4.88;70.31;98053.72;5073812;28;20178;-72
2022/01/11 09:54:36;;;;;;;38.47;23.40;;;;;;;5.54;68.55;98056.50;5068864;28;20222;-71
2022/01/11 09:57:03;;;;;;;42.43;23.33;;;;;;;5.27;68.75;98061.69;5070748;28;20473;-71
2022/01/11 09:59:30;;;;;;;45.33;23.80;;;;;;;5.62;68.38;98053.38;5066462;28;20753;-72
2022/01/11 10:01:55;;;;;;;43.23;24.20;;;;;;;5.01;69.71;98061.59;5068227;28;20552;-72
2022/01/11 10:04:27;;;;;;;40.23;24.17;;;;;;;5.81;68.12;98063.41;5065149;28;20470;-72
2022/01/11 10:06:56;;;;;;;39.40;23.60;;;;;;;5.24;69.16;98060.13;5075040;28;20588;-72
2022/01/11 10:09:22;;;;;;;43.43;22.60;;;;;;;5.04;69.85;98061.41;5030812;28;20429;-72
2022/01/11 10:11:53;;;;;;;43.10;24.77;;;;;;;5.64;69.00;98062.78;5074464;28;20914;-73
2022/01/11 10:14:27;;;;;;;42.27;22.73;;;;;;;5.87;67.44;98063.03;5065663;28;21111;-72
2022/01/11 10:17:07;;;;;;;38.67;22.20;;;;;;;6.07;66.74;98061.72;5075386;28;20817;-71
2022/01/11 10:19:33;;;;;;;36.90;20.60;;;;;;;5.83;66.78;98057.19;5073015;28;20427;-72
2022/01/11 10:22:02;;;;;;;35.80;21.57;;;;;;;6.23;65.89;98060.72;5071155;28;20426;-71
2022/01/11 10:24:32;;;;;;;34.00;22.43;;;;;;;6.29;66.04;98055.06;5072509;28;20444;-72
2022/01/11 10:26:59;;;;;;;34.60;20.63;;;;;;;5.62;66.69;98056.84;5074522;28;20528;-72
2022/01/11 10:29:26;;;;;;;37.27;20.50;;;;;;;6.17;66.03;98059.34;5040862;28;20421;-73
2022/01/11 10:31:53;;;;;;;37.20;21.30;;;;;;;6.25;65.25;98064.88;5072805;28;20520;-72
2022/01/11 10:34:28;;;;;;;38.90;22.07;;;;;;;6.66;64.04;98057.75;5064320;28;20445;-73
2022/01/11 10:36:54;;;;;;;37.17;20.30;;;;;;;6.54;64.54;98056.00;5073148;28;20427;-73
2022/01/11 10:39:29;;;;;;;34.43;19.73;;;;;;;6.77;63.22;98059.63;5069035;28;20805;-72
2022/01/11 10:41:55;;;;;;;31.37;19.87;;;;;;;6.60;63.13;98052.97;5058458;28;20290;-74
2022/01/11 10:44:44;;;;;;;42.43;20.10;;;;;;;6.44;64.93;98061.00;5014689;28;20519;-73
2022/01/11 10:47:09;;;;;;;35.00;18.80;;;;;;;6.86;62.93;98051.13;5071039;28;20437;-71
2022/01/11 10:49:36;;;;;;;29.83;18.03;;;;;;;6.01;64.40;98051.72;5072785;28;20452;-71
2022/01/11 10:52:19;;;;;;;31.10;17.97;;;;;;;6.61;63.03;98050.25;5074067;28;20186;-72
2022/01/11 10:54:46;;;;;;;34.70;19.57;;;;;;;6.84;62.87;98053.03;5073506;28;20472;-72
2022/01/11 10:57:18;;;;;;;39.60;19.43;;;;;;;6.97;61.53;98055.59;5071910;28;20489;-72
2022/01/11 10:59:43;;;;;;;40.33;17.10;;;;;;;6.73;61.95;98053.78;5068150;28;20421;-73
2022/01/11 11:02:24;;;;;;;33.53;17.00;;;;;;;7.20;60.82;98058.34;5067290;28;20931;-72
2022/01/11 11:04:49;;;;;;;30.13;17.03;;;;;;;7.17;59.95;98055.94;5073535;28;20216;-72
2022/01/11 11:07:15;;;;;;;29.57;15.63;;;;;;;6.56;61.31;98046.31;5064518;28;20512;-70
2022/01/11 11:09:50;;;;;;;28.27;16.00;;;;;;;6.83;61.03;98053.13;5067094;28;20252;-72
2022/01/11 11:12:18;;;;;;;24.30;17.03;;;;;;;7.02;60.00;98053.47;5071851;28;20428;-72
2022/01/11 11:14:53;;;;;;;24.50;16.37;;;;;;;7.05;59.88;98058.50;5073256;28;20528;-70
2022/01/11 11:17:29;;;;;;;26.07;15.70;;;;;;;6.91;59.84;98049.06;5073062;28;20532;-71
2022/01/11 11:19:57;;;;;;;26.40;15.73;;;;;;;6.88;60.17;98059.69;5072355;28;20794;-73
2022/01/11 11:22:24;;;;;;;25.20;16.50;;;;;;;7.10;59.15;98060.75;5061376;28;20417;-72
2022/01/11 11:24:51;;;;;;;29.03;16.93;;;;;;;6.65;59.03;98056.06;5072398;28;20456;-72
2022/01/11 11:27:17;;;;;;;26.30;12.30;;;;;;;7.07;58.23;98056.59;5068328;28;21109;-74